Time;durP1;ratioP1;P1;durP2;ratioP2;P2;SDS_P1;SDS_P2;PMS_P1;PMS_P2;Temp;Humidity;BMP_temperature;BMP_pressure;BME280_temperature;BME280_humidity;BME280_pressure;Samples;Min_cycle;Max_cycle;Signal;HPM_P1;HPM_P2
2023/01/15 00:00:45;;;;;;;1.70;1.60;;;;;;;6.94;100.00;96959.72;5046399;28;20131;-80
2023/01/15 00:03:11;;;;;;;3.83;1.25;;;;;;;6.90;100.00;96952.59;5048771;28;20092;-81
2023/01/15 00:05:36;;;;;;;0.90;0.90;;;;;;;6.95;100.00;96944.59;5045125;28;20043;-82
2023/01/15 00:08:02;;;;;;;1.50;0.85;;;;;;;6.93;100.00;96963.44;5057019;28;20534;-81
2023/01/15 00:10:27;;;;;;;1.08;1.08;;;;;;;7.03;100.00;96967.91;5024328;28;20059;-81
2023/01/15 00:12:53;;;;;;;0.88;0.80;;;;;;;6.89;100.00;96935.88;5034447;28;20032;-81
2023/01/15 00:15:18;;;;;;;1.13;1.02;;;;;;;7.03;100.00;96952.00;5049565;28;20068;-81
2023/01/15 00:17:44;;;;;;;0.65;0.65;;;;;;;6.93;100.00;96944.88;5065779;28;20039;-81
2023/01/15 00:20:10;;;;;;;0.73;0.73;;;;;;;6.96;100.00;96954.16;5048263;28;20430;-81
2023/01/15 00:22:35;;;;;;;0.85;0.75;;;;;;;6.84;100.00;96935.88;5044793;28;20037;-79
2023/01/15 00:27:45;;;;;;;0.77;0.70;;;;;;;6.92;100.00;96956.56;5041542;28;20063;-80
2023/01/15 00:30:13;;;;;;;0.98;0.70;;;;;;;6.87;100.00;96964.53;5054000;28;20028;-81
2023/01/15 00:32:39;;;;;;;0.60;0.50;;;;;;;6.93;100.00;96952.84;5047784;28;20090;-81
2023/01/15 00:35:06;;;;;;;0.77;0.60;;;;;;;6.93;100.00;96950.19;5049957;28;20387;-81
2023/01/15 00:37:31;;;;;;;0.40;0.40;;;;;;;6.87;100.00;96953.91;5037952;28;20041;-81
2023/01/15 00:39:57;;;;;;;0.45;0.45;;;;;;;6.88;100.00;96960.78;5047967;28;20098;-81
2023/01/15 00:42:22;;;;;;;0.65;0.65;;;;;;;6.94;100.00;96970.34;5056569;28;20040;-81
2023/01/15 00:44:47;;;;;;;0.70;0.50;;;;;;;6.95;100.00;96965.81;5051996;28;20032;-81
2023/01/15 00:47:14;;;;;;;0.82;0.73;;;;;;;6.95;100.00;96974.56;5055286;28;20427;-81
2023/01/15 00:49:43;;;;;;;0.65;0.65;;;;;;;6.99;100.00;96978.25;5041172;28;20032;-81
2023/01/15 00:52:08;;;;;;;0.52;0.52;;;;;;;6.99;98.98;96980.13;5064708;28;20051;-81
2023/01/15 00:54:34;;;;;;;2.20;0.88;;;;;;;6.94;100.00;96983.59;5048268;28;20029;-81
2023/01/15 00:56:59;;;;;;;0.57;0.57;;;;;;;6.91;100.00;96984.13;5041321;28;20348;-81
2023/01/15 00:59:25;;;;;;;0.80;0.45;;;;;;;6.86;99.67;96970.88;5071097;28;20051;-81
2023/01/15 01:01:50;;;;;;;1.17;0.77;;;;;;;6.97;99.19;96980.38;5056167;28;20048;-81
2023/01/15 01:04:16;;;;;;;1.05;0.77;;;;;;;6.98;100.00;96991.81;5082216;28;20054;-81
2023/01/15 01:06:41;;;;;;;2.00;1.35;;;;;;;6.90;100.00;96987.88;5058428;28;20074;-81
2023/01/15 01:09:08;;;;;;;1.13;0.93;;;;;;;6.88;99.82;96983.88;5057538;28;20429;-81
2023/01/15 01:11:35;;;;;;;3.05;1.38;;;;;;;6.97;100.00;97001.59;5042090;28;20533;-81
2023/01/15 01:14:01;;;;;;;2.58;1.58;;;;;;;6.95;99.54;96997.63;5059093;28;20040;-81
2023/01/15 01:16:34;;;;;;;2.38;1.60;;;;;;;6.98;99.68;96991.81;5059053;28;20032;-81
2023/01/15 01:19:02;;;;;;;2.00;1.50;;;;;;;7.06;99.06;96996.53;5045136;28;20518;-81
2023/01/15 01:21:28;;;;;;;1.98;1.50;;;;;;;7.15;98.63;97013.47;5042835;28;20098;-81
2023/01/15 01:23:54;;;;;;;2.53;2.13;;;;;;;7.11;98.61;97015.09;5058473;28;20040;-81
2023/01/15 01:26:19;;;;;;;1.60;1.17;;;;;;;6.96;98.48;97020.44;5080047;28;20024;-81
2023/01/15 01:28:50;;;;;;;1.60;1.42;;;;;;;6.98;98.86;97032.38;5032062;28;20499;-81
2023/01/15 01:31:15;;;;;;;2.33;1.15;;;;;;;7.06;98.88;97023.84;5047968;28;20055;-81
2023/01/15 01:33:40;;;;;;;0.98;0.95;;;;;;;6.94;98.42;97012.78;5038107;28;20044;-81
2023/01/15 01:36:06;;;;;;;0.75;0.70;;;;;;;7.02;98.44;97033.44;5028907;28;20048;-81
2023/01/15 01:38:31;;;;;;;1.25;1.05;;;;;;;7.00;98.63;97022.28;5051064;28;20024;-81
2023/01/15 01:40:57;;;;;;;1.08;0.98;;;;;;;6.92;99.07;97033.47;5039703;28;20040;-81
2023/01/15 01:43:29;;;;;;;1.77;0.85;;;;;;;6.92;98.93;97025.50;5054075;28;21292;-81
2023/01/15 01:45:54;;;;;;;1.70;1.60;;;;;;;6.98;98.76;97028.94;5059086;28;20032;-81
2023/01/15 01:48:27;;;;;;;1.45;0.90;;;;;;;6.94;98.12;97023.38;5037576;28;20434;-81
2023/01/15 01:50:57;;;;;;;4.47;0.82;;;;;;;6.92;98.68;97035.31;5042930;28;20048;-81
2023/01/15 01:53:27;;;;;;;0.70;0.70;;;;;;;6.78;99.17;97033.22;5041981;28;20158;-81
2023/01/15 01:55:55;;;;;;;0.95;0.95;;;;;;;6.87;98.61;97044.06;5042196;28;20184;-81
2023/01/15 01:58:23;;;;;;;0.70;0.70;;;;;;;6.82;98.45;97042.22;5053503;28;20044;-81
2023/01/15 02:00:51;;;;;;;0.70;0.70;;;;;;;6.74;99.34;97060.53;5056646;28;20110;-81
2023/01/15 02:03:19;;;;;;;0.93;0.88;;;;;;;6.56;99.08;97050.47;5040936;28;20024;-81
2023/01/15 02:05:57;;;;;;;3.50;1.35;;;;;;;6.58;99.03;97061.59;5044899;28;20037;-81
2023/01/15 02:08:23;;;;;;;0.88;0.88;;;;;;;6.60;98.22;97089.44;5019615;28;20028;-81
2023/01/15 02:10:53;;;;;;;0.68;0.65;;;;;;;6.61;99.01;97084.94;5054910;28;20409;-81
2023/01/15 02:13:22;;;;;;;1.42;0.85;;;;;;;6.46;98.63;97091.03;5067906;28;20449;-81
2023/01/15 02:15:59;;;;;;;0.85;0.60;;;;;;;6.58;99.02;97104.00;5056997;28;20697;-81
2023/01/15 02:18:50;;;;;;;0.93;0.75;;;;;;;6.43;98.38;97122.56;5069339;28;20028;-81
2023/01/15 02:21:22;;;;;;;0.77;0.68;;;;;;;6.30;98.15;97107.19;5066755;28;20036;-82
2023/01/15 02:24:05;;;;;;;0.60;0.60;;;;;;;6.32;97.96;97124.41;5043142;28;20028;-81
2023/01/15 02:26:39;;;;;;;1.52;0.90;;;;;;;6.34;98.95;97118.84;5067288;28;20052;-81
2023/01/15 02:29:09;;;;;;;1.33;1.27;;;;;;;6.27;97.06;97127.03;5041614;28;20514;-81
2023/01/15 02:31:42;;;;;;;0.60;0.60;;;;;;;6.40;97.35;97134.47;5061706;28;20043;-81
2023/01/15 02:34:17;;;;;;;0.70;0.70;;;;;;;6.47;97.38;97150.13;5068391;28;20119;-81
2023/01/15 02:36:47;;;;;;;2.10;0.80;;;;;;;6.16;97.54;97146.63;5070250;28;20124;-81
2023/01/15 02:39:16;;;;;;;1.27;0.60;;;;;;;5.99;96.91;97132.81;5055504;28;20034;-81
2023/01/15 02:41:47;;;;;;;0.75;0.75;;;;;;;5.88;97.21;97147.06;5064752;28;20025;-81
2023/01/15 02:44:17;;;;;;;2.13;0.52;;;;;;;5.98;96.86;97153.19;5059753;28;20473;-81
2023/01/15 02:46:44;;;;;;;0.47;0.47;;;;;;;6.02;96.55;97167.53;5057641;28;20044;-82
2023/01/15 02:49:14;;;;;;;1.13;0.50;;;;;;;6.00;95.79;97161.69;5043529;28;20028;-81
2023/01/15 02:51:46;;;;;;;0.35;0.35;;;;;;;5.97;96.61;97159.56;5061007;28;20492;-81
2023/01/15 02:54:14;;;;;;;1.25;0.70;;;;;;;5.97;95.76;97156.91;5044609;28;20119;-81
2023/01/15 02:56:43;;;;;;;0.47;0.40;;;;;;;5.91;96.41;97168.53;5059707;28;20039;-81
2023/01/15 02:59:13;;;;;;;0.85;0.50;;;;;;;6.00;95.25;97174.13;5055406;28;20037;-81
2023/01/15 03:01:44;;;;;;;0.75;0.75;;;;;;;6.10;95.52;97173.34;5058033;28;20024;-81
2023/01/15 03:04:16;;;;;;;0.30;0.30;;;;;;;5.99;95.41;97175.97;5046875;28;20082;-82
2023/01/15 03:07:03;;;;;;;0.98;0.40;;;;;;;5.87;95.50;97190.50;5042252;28;20588;-81
2023/01/15 03:09:29;;;;;;;0.20;0.20;;;;;;;5.73;96.26;97182.19;5058569;28;20372;-81
2023/01/15 03:12:13;;;;;;;0.32;0.32;;;;;;;5.83;95.50;97187.53;5046720;28;20029;-81
2023/01/15 03:14:53;;;;;;;0.60;0.32;;;;;;;5.76;95.13;97188.84;5084150;28;20044;-82
2023/01/15 03:17:31;;;;;;;0.65;0.65;;;;;;;5.49;94.30;97193.44;5060151;28;20037;-81
2023/01/15 03:20:04;;;;;;;3.92;0.70;;;;;;;5.55;94.61;97189.78;5064650;28;20031;-81
2023/01/15 03:22:33;;;;;;;0.40;0.40;;;;;;;5.59;95.10;97201.47;5064111;28;20056;-81
2023/01/15 03:25:05;;;;;;;0.35;0.35;;;;;;;5.77;95.67;97211.59;5067684;28;20025;-81
2023/01/15 03:27:31;;;;;;;0.50;0.50;;;;;;;5.36;94.40;97202.63;5058717;28;20036;-81
2023/01/15 03:30:05;;;;;;;0.40;0.40;;;;;;;5.30;95.24;97204.47;5062700;28;20033;-82
2023/01/15 03:32:31;;;;;;;0.30;0.30;;;;;;;5.49;94.02;97215.41;5048145;28;20086;-82
2023/01/15 03:34:57;;;;;;;1.02;0.60;;;;;;;5.71;95.83;97210.78;5046256;28;20033;-82
2023/01/15 03:37:26;;;;;;;0.50;0.50;;;;;;;5.75;94.84;97216.34;5040591;28;20029;-82
2023/01/15 03:39:52;;;;;;;2.15;0.40;;;;;;;5.38;94.96;97195.25;5063181;28;20418;-82
2023/01/15 03:42:24;;;;;;;1.33;0.95;;;;;;;5.75;95.68;97206.56;5044620;28;20032;-81
2023/01/15 03:44:55;;;;;;;1.15;0.47;;;;;;;5.80;94.28;97206.59;5062963;28;20260;-82
2023/01/15 03:47:41;;;;;;;0.50;0.50;;;;;;;5.74;94.63;97180.34;5070914;28;20117;-81
2023/01/15 03:50:13;;;;;;;0.50;0.50;;;;;;;5.68;94.45;97176.88;5055412;28;20040;-81
2023/01/15 03:53:14;;;;;;;0.70;0.70;;;;;;;5.75;94.25;97179.28;5031936;28;20040;-81
2023/01/15 03:55:52;;;;;;;0.68;0.68;;;;;;;5.51;92.86;97152.44;5060698;28;20448;-81
2023/01/15 03:58:24;;;;;;;1.45;0.75;;;;;;;5.69;94.23;97152.00;5026913;28;20036;-81
2023/01/15 04:00:53;;;;;;;2.95;0.60;;;;;;;5.81;93.93;97149.94;5042346;28;20116;-81
2023/01/15 04:03:21;;;;;;;2.17;0.50;;;;;;;5.52;92.81;97138.19;5039979;28;20032;-81
2023/01/15 04:05:49;;;;;;;0.68;0.60;;;;;;;5.71;93.64;97138.50;5058780;28;20032;-81
2023/01/15 04:08:15;;;;;;;1.67;0.82;;;;;;;5.69;92.89;97133.50;5057031;28;20021;-80
2023/01/15 04:10:58;;;;;;;1.63;0.90;;;;;;;5.70;93.16;97123.69;5058806;28;20043;-81
2023/01/15 04:13:24;;;;;;;0.80;0.80;;;;;;;5.76;92.86;97127.94;5076522;28;20035;-81
2023/01/15 04:15:51;;;;;;;0.88;0.65;;;;;;;5.81;91.92;97120.81;5047479;28;20111;-81
2023/01/15 04:18:17;;;;;;;1.88;0.65;;;;;;;5.85;92.35;97129.84;5050616;28;20049;-81
2023/01/15 04:20:42;;;;;;;1.77;0.82;;;;;;;5.87;92.29;97145.50;5068090;28;20133;-81
2023/01/15 04:23:08;;;;;;;3.13;0.68;;;;;;;5.81;92.75;97125.34;5073280;28;20066;-81
2023/01/15 04:25:33;;;;;;;0.65;0.65;;;;;;;5.88;92.59;97136.47;5035435;28;20503;-81
2023/01/15 04:27:58;;;;;;;0.80;0.80;;;;;;;5.67;90.99;97127.66;5054447;28;20025;-81
2023/01/15 04:30:24;;;;;;;0.90;0.80;;;;;;;5.56;92.23;97138.44;5034593;28;20085;-81
2023/01/15 04:32:50;;;;;;;0.60;0.60;;;;;;;5.93;93.02;97134.66;5050067;28;20036;-81
2023/01/15 04:35:17;;;;;;;1.17;0.82;;;;;;;6.01;91.42;97126.19;5050953;28;20021;-81
2023/01/15 04:37:42;;;;;;;0.60;0.60;;;;;;;6.11;91.44;97130.75;5033199;28;20055;-81
2023/01/15 04:44:05;;;;;;;1.38;0.80;;;;;;;5.89;91.02;97109.78;5080034;28;20567;-81
2023/01/15 04:45:39;;;;;;;1.60;0.80;;;;;;;5.90;91.34;97134.38;5060202;28;20167;-81
2023/01/15 04:48:05;;;;;;;0.55;0.55;;;;;;;5.94;91.33;97136.25;5037658;28;20033;-81
2023/01/15 04:50:31;;;;;;;0.38;0.35;;;;;;;5.68;91.17;97129.22;5056698;28;20036;-81
2023/01/15 04:52:56;;;;;;;1.02;0.70;;;;;;;5.86;91.37;97123.50;5038956;28;20043;-81
2023/01/15 04:55:22;;;;;;;1.00;0.80;;;;;;;5.68;91.14;97115.22;5028387;28;20025;-80
2023/01/15 04:57:50;;;;;;;0.77;0.77;;;;;;;5.83;92.10;97105.47;5025892;28;20078;-80
2023/01/15 05:00:16;;;;;;;0.82;0.82;;;;;;;5.83;91.48;97116.06;5038973;28;20123;-81
2023/01/15 05:02:41;;;;;;;0.70;0.60;;;;;;;5.54;91.70;97108.81;5054326;28;20457;-81
2023/01/15 05:05:07;;;;;;;0.63;0.63;;;;;;;5.60;91.62;97099.84;5038566;28;20120;-81
2023/01/15 05:07:32;;;;;;;0.57;0.57;;;;;;;5.37;91.47;97087.84;5039139;28;20634;-81
2023/01/15 05:09:58;;;;;;;0.70;0.55;;;;;;;5.44;90.59;97114.84;5068477;28;20054;-80
2023/01/15 05:12:23;;;;;;;4.43;0.93;;;;;;;5.53;91.29;97096.63;5063871;28;20385;-81
2023/01/15 05:14:48;;;;;;;0.75;0.45;;;;;;;5.52;90.84;97101.13;5055274;28;20151;-80
2023/01/15 05:17:14;;;;;;;0.40;0.40;;;;;;;5.45;90.71;97095.28;5052271;28;20083;-80
2023/01/15 05:19:39;;;;;;;0.30;0.30;;;;;;;5.52;91.31;97098.50;5059145;28;20036;-80
2023/01/15 05:22:05;;;;;;;1.58;0.60;;;;;;;5.43;91.21;97092.09;5070820;28;20123;-81
2023/01/15 05:24:30;;;;;;;0.75;0.40;;;;;;;5.28;90.16;97087.56;5053847;28;20029;-81
2023/01/15 05:26:57;;;;;;;1.33;0.90;;;;;;;5.42;91.76;97111.66;5035061;28;20029;-81
2023/01/15 05:29:22;;;;;;;0.38;0.32;;;;;;;5.31;91.05;97108.19;5041790;28;20071;-80
2023/01/15 05:31:48;;;;;;;0.52;0.40;;;;;;;5.33;91.36;97121.13;5030748;28;20032;-80
2023/01/15 05:34:14;;;;;;;2.55;0.65;;;;;;;5.39;90.73;97098.97;5037851;28;20401;-80
2023/01/15 05:36:40;;;;;;;1.38;0.55;;;;;;;5.34;90.37;97109.50;5039609;28;20028;-80
2023/01/15 05:39:05;;;;;;;0.30;0.30;;;;;;;5.26;90.09;97102.09;5040361;28;20039;-80
2023/01/15 05:41:49;;;;;;;0.38;0.35;;;;;;;5.25;90.17;97101.28;5019120;28;21058;-81
2023/01/15 05:44:26;;;;;;;0.60;0.25;;;;;;;5.26;90.17;97107.38;5045168;28;20035;-80
2023/01/15 05:46:54;;;;;;;3.20;0.50;;;;;;;5.27;90.16;97114.25;5038984;28;20087;-80
2023/01/15 05:49:22;;;;;;;1.77;0.60;;;;;;;5.33;90.32;97126.44;5040866;28;20037;-80
2023/01/15 05:51:49;;;;;;;0.40;0.40;;;;;;;5.32;90.17;97140.72;5056737;28;20040;-80
2023/01/15 05:54:17;;;;;;;1.02;0.50;;;;;;;5.38;88.92;97158.22;5037790;28;20043;-80
2023/01/15 05:56:44;;;;;;;0.60;0.40;;;;;;;5.27;89.33;97154.72;5050930;28;20058;-80
2023/01/15 05:59:11;;;;;;;1.85;0.32;;;;;;;5.17;88.92;97148.56;5057904;28;20183;-80
2023/01/15 06:01:37;;;;;;;0.90;0.90;;;;;;;5.13;88.68;97150.91;5057491;28;20918;-80
2023/01/15 06:04:04;;;;;;;0.13;0.13;;;;;;;5.07;88.62;97135.28;5056443;28;20081;-80
2023/01/15 06:06:30;;;;;;;0.52;0.40;;;;;;;5.17;88.67;97132.72;5040039;28;20032;-80
2023/01/15 06:08:55;;;;;;;0.45;0.40;;;;;;;5.21;89.02;97134.59;5054395;28;20731;-80
2023/01/15 06:11:21;;;;;;;1.45;0.28;;;;;;;5.26;88.75;97136.47;5054402;28;20045;-80
2023/01/15 06:13:46;;;;;;;0.22;0.22;;;;;;;5.24;87.93;97138.56;5047484;28;20496;-81
2023/01/15 06:16:12;;;;;;;0.73;0.50;;;;;;;5.09;88.23;97133.16;5066772;28;20024;-80
2023/01/15 06:18:38;;;;;;;0.25;0.25;;;;;;;5.24;87.67;97149.16;5056703;28;21591;-80
2023/01/15 06:21:06;;;;;;;0.30;0.30;;;;;;;4.86;87.23;97158.13;5062295;28;20480;-80
2023/01/15 06:23:35;;;;;;;0.35;0.20;;;;;;;5.19;87.94;97164.97;5049623;28;20037;-80
2023/01/15 06:26:02;;;;;;;0.55;0.40;;;;;;;5.19;87.82;97172.91;5060876;28;20017;-80
2023/01/15 06:28:28;;;;;;;0.20;0.20;;;;;;;5.22;88.30;97170.53;5064856;28;20058;-80
2023/01/15 06:30:53;;;;;;;1.58;0.52;;;;;;;5.14;87.54;97159.66;5029539;28;20521;-80
2023/01/15 06:33:18;;;;;;;3.85;0.45;;;;;;;5.12;87.37;97145.88;5044201;28;20085;-80
2023/01/15 06:35:44;;;;;;;3.25;0.47;;;;;;;5.08;87.03;97150.09;5035117;28;20064;-80
2023/01/15 06:38:09;;;;;;;0.45;0.13;;;;;;;5.01;87.21;97163.53;5035489;28;20639;-80
2023/01/15 06:40:35;;;;;;;1.33;0.40;;;;;;;5.15;88.07;97174.47;5048648;28;20123;-80
2023/01/15 06:48:28;;;;;;;0.68;0.30;;;;;;;4.93;88.05;97166.66;5052483;28;20035;-80
2023/01/15 06:50:54;;;;;;;0.30;0.30;;;;;;;5.09;88.53;97194.78;5052409;28;20037;-80
2023/01/15 06:53:20;;;;;;;0.68;0.40;;;;;;;5.05;87.43;97203.47;5051616;28;20055;-80
2023/01/15 06:55:46;;;;;;;0.90;0.70;;;;;;;5.06;88.15;97183.94;5036502;28;20033;-80
2023/01/15 06:58:11;;;;;;;0.90;0.50;;;;;;;4.92;87.50;97177.47;5041494;28;20115;-80
2023/01/15 07:00:37;;;;;;;0.88;0.25;;;;;;;5.04;87.38;97204.53;5056428;28;20376;-80
2023/01/15 07:03:03;;;;;;;0.50;0.35;;;;;;;4.97;87.73;97194.19;5070816;28;20672;-80
2023/01/15 07:05:29;;;;;;;3.60;0.65;;;;;;;4.86;87.23;97204.91;5053525;28;20070;-80
2023/01/15 07:07:56;;;;;;;0.88;0.40;;;;;;;4.95;86.88;97195.47;5043431;28;20472;-80
2023/01/15 07:10:22;;;;;;;0.40;0.40;;;;;;;4.86;87.53;97202.28;5057424;28;20028;-80
2023/01/15 07:12:47;;;;;;;0.60;0.35;;;;;;;4.98;87.31;97208.19;5029633;28;20037;-80
2023/01/15 07:15:13;;;;;;;2.33;0.77;;;;;;;4.75;87.21;97203.22;5025612;28;20028;-80
2023/01/15 07:17:38;;;;;;;0.47;0.30;;;;;;;4.86;87.25;97199.63;5039070;28;20068;-80
2023/01/15 07:20:04;;;;;;;1.75;1.65;;;;;;;4.72;86.82;97199.25;5029808;28;20886;-79
2023/01/15 07:22:30;;;;;;;0.40;0.40;;;;;;;4.80;87.45;97203.28;5043608;28;20043;-80
2023/01/15 07:24:55;;;;;;;1.63;1.13;;;;;;;4.91;87.33;97197.84;5055402;28;20037;-80
2023/01/15 07:27:21;;;;;;;2.35;0.43;;;;;;;4.82;87.09;97196.69;5037828;28;20033;-80
2023/01/15 07:29:48;;;;;;;0.75;0.45;;;;;;;4.87;86.91;97203.88;5060522;28;20025;-80
2023/01/15 07:32:14;;;;;;;1.45;0.43;;;;;;;4.78;87.94;97205.38;5040255;28;20031;-80
2023/01/15 07:34:39;;;;;;;1.65;0.75;;;;;;;4.80;87.51;97195.34;5066308;28;20562;-80
2023/01/15 07:37:04;;;;;;;0.68;0.47;;;;;;;4.77;87.68;97209.88;5056852;28;20037;-80
2023/01/15 07:39:30;;;;;;;2.28;0.88;;;;;;;4.85;87.30;97211.25;5030759;28;20347;-80
2023/01/15 07:50:51;;;;;;;4.03;0.60;;;;;;;4.78;86.91;97219.41;4998518;28;20112;-80
2023/01/15 07:53:16;;;;;;;0.82;0.47;;;;;;;4.73;87.36;97215.91;5035460;28;20509;-80
2023/01/15 07:55:42;;;;;;;0.73;0.50;;;;;;;4.63;86.84;97206.03;5052001;28;20033;-80
2023/01/15 07:58:07;;;;;;;1.42;0.63;;;;;;;4.62;87.18;97199.16;5040438;28;20039;-80
2023/01/15 08:00:32;;;;;;;1.73;0.63;;;;;;;4.73;87.26;97207.97;5042624;28;20123;-80
2023/01/15 08:02:58;;;;;;;0.88;0.40;;;;;;;4.59;87.16;97204.94;5042173;28;20029;-80
2023/01/15 08:05:23;;;;;;;2.40;0.82;;;;;;;4.71;86.38;97225.94;5030323;28;20481;-80
2023/01/15 08:07:49;;;;;;;3.00;0.60;;;;;;;4.73;86.98;97231.75;5042999;28;20024;-80
2023/01/15 08:10:14;;;;;;;1.50;0.38;;;;;;;4.65;87.40;97221.66;5041505;28;20498;-80
2023/01/15 08:15:25;;;;;;;2.95;0.75;;;;;;;4.75;86.99;97216.44;5048466;28;20047;-80
2023/01/15 08:17:50;;;;;;;1.42;0.70;;;;;;;4.56;86.63;97224.72;5035495;28;20404;-80
2023/01/15 08:20:22;;;;;;;4.35;0.82;;;;;;;4.75;86.92;97232.31;5039977;28;20481;-80
2023/01/15 08:22:48;;;;;;;2.35;0.60;;;;;;;4.56;87.43;97211.50;5076910;28;20115;-80
2023/01/15 08:25:16;;;;;;;1.38;0.60;;;;;;;4.74;87.54;97234.13;5053281;28;20102;-79
2023/01/15 08:27:42;;;;;;;0.85;0.50;;;;;;;4.63;87.54;97224.53;5059708;28;20538;-80
2023/01/15 08:30:11;;;;;;;1.15;0.30;;;;;;;4.76;86.83;97228.63;5039418;28;20044;-80
2023/01/15 08:32:36;;;;;;;0.50;0.50;;;;;;;4.75;86.95;97221.72;5065693;28;20036;-79
2023/01/15 08:35:02;;;;;;;1.35;0.57;;;;;;;4.77;86.74;97236.28;5044547;28;20025;-80
2023/01/15 08:37:27;;;;;;;1.10;0.52;;;;;;;4.81;86.39;97244.50;5046763;28;20043;-80
2023/01/15 08:39:53;;;;;;;4.85;3.05;;;;;;;4.56;86.68;97216.78;5063902;28;20017;-80
2023/01/15 08:42:21;;;;;;;0.50;0.50;;;;;;;4.70;86.79;97234.88;5029599;28;20569;-80
2023/01/15 08:44:47;;;;;;;1.50;0.95;;;;;;;4.62;85.99;97235.34;5048175;28;20043;-80
2023/01/15 08:47:14;;;;;;;4.13;0.45;;;;;;;4.56;85.40;97245.09;5059590;28;20029;-80
2023/01/15 08:49:39;;;;;;;0.70;0.45;;;;;;;4.31;86.56;97232.41;5053289;28;20093;-80
2023/01/15 08:52:04;;;;;;;2.08;0.60;;;;;;;4.39;85.65;97237.22;5022675;28;20037;-80
2023/01/15 08:54:30;;;;;;;3.53;0.70;;;;;;;4.34;86.33;97237.19;5053152;28;20131;-79
2023/01/15 08:56:57;;;;;;;2.40;1.02;;;;;;;4.22;84.94;97236.53;5060190;28;20305;-79
2023/01/15 08:59:23;;;;;;;0.70;0.55;;;;;;;4.19;85.31;97255.53;5071848;28;20033;-79
2023/01/15 09:01:48;;;;;;;3.67;1.33;;;;;;;4.35;85.68;97264.38;5063430;28;20045;-80
2023/01/15 09:04:15;;;;;;;1.00;0.82;;;;;;;4.33;85.80;97248.78;5042092;28;20422;-79
2023/01/15 09:06:41;;;;;;;2.25;1.27;;;;;;;4.23;84.94;97251.34;5065271;28;20060;-79
2023/01/15 09:09:06;;;;;;;3.38;1.60;;;;;;;4.19;85.09;97257.34;5051930;28;20027;-80
2023/01/15 09:11:32;;;;;;;2.92;1.23;;;;;;;4.29;84.83;97241.63;5036283;28;20056;-80
2023/01/15 09:13:57;;;;;;;4.68;3.15;;;;;;;4.21;85.93;97249.97;5072457;28;20029;-80
2023/01/15 09:16:25;;;;;;;3.25;2.95;;;;;;;4.16;84.72;97247.28;5033188;28;20036;-80
2023/01/15 09:18:50;;;;;;;6.50;2.17;;;;;;;3.99;85.21;97247.34;5032353;28;20119;-80
2023/01/15 09:21:16;;;;;;;1.30;1.20;;;;;;;4.12;84.75;97254.91;5042895;28;20112;-80
2023/01/15 09:23:41;;;;;;;3.80;1.48;;;;;;;4.23;84.28;97283.03;5046579;28;20392;-80
2023/01/15 09:26:07;;;;;;;6.97;3.42;;;;;;;4.19;84.85;97265.28;5079740;28;20123;-80
2023/01/15 09:28:33;;;;;;;3.38;1.80;;;;;;;4.18;84.70;97275.03;5061771;28;20048;-80
2023/01/15 09:30:59;;;;;;;2.33;1.98;;;;;;;4.09;84.87;97250.09;5042928;28;20110;-80
2023/01/15 09:33:25;;;;;;;2.78;2.50;;;;;;;4.14;84.08;97254.66;5062788;28;20032;-80
2023/01/15 09:35:51;;;;;;;4.35;1.92;;;;;;;4.17;84.05;97262.84;5041068;28;20029;-80
2023/01/15 09:38:19;;;;;;;3.22;1.88;;;;;;;4.37;84.57;97268.38;5054164;28;20052;-80
2023/01/15 09:40:54;;;;;;;2.47;1.98;;;;;;;4.18;85.39;97264.47;5049450;28;20036;-80
2023/01/15 09:43:19;;;;;;;6.28;1.52;;;;;;;4.19;84.78;97284.56;5075591;28;20510;-80
2023/01/15 09:45:55;;;;;;;3.22;1.80;;;;;;;4.15;84.28;97259.66;5063306;28;20024;-80
2023/01/15 09:49:08;;;;;;;1.52;1.38;;;;;;;3.94;85.56;97275.50;5068158;28;20039;-80
2023/01/15 09:51:41;;;;;;;7.05;2.08;;;;;;;4.01;84.67;97276.94;4984333;28;20045;-80
2023/01/15 09:54:32;;;;;;;3.17;2.88;;;;;;;4.07;84.85;97269.88;5058064;28;21232;-80
2023/01/15 09:56:58;;;;;;;6.95;4.32;;;;;;;3.98;84.95;97274.78;5067361;28;20396;-80
2023/01/15 09:59:38;;;;;;;6.60;2.67;;;;;;;4.12;84.72;97285.78;5031472;28;20032;-79
2023/01/15 10:02:24;;;;;;;5.32;3.28;;;;;;;3.99;84.82;97270.31;5046100;28;20036;-80
2023/01/15 10:04:56;;;;;;;3.33;1.67;;;;;;;4.16;84.77;97278.97;5071996;28;20024;-80
2023/01/15 10:07:29;;;;;;;3.60;3.17;;;;;;;4.01;84.71;97282.22;5054589;28;20051;-80
2023/01/15 10:10:01;;;;;;;8.25;5.35;;;;;;;4.03;84.45;97274.84;5075894;28;20040;-80
2023/01/15 10:12:35;;;;;;;6.15;2.50;;;;;;;3.81;84.89;97276.66;5063487;28;20532;-80
2023/01/15 10:15:12;;;;;;;8.02;2.47;;;;;;;4.03;84.96;97285.41;5054891;28;20059;-79
2023/01/15 10:17:45;;;;;;;4.55;1.85;;;;;;;3.95;84.65;97267.38;5065870;28;20549;-79
2023/01/15 10:20:30;;;;;;;5.25;2.88;;;;;;;3.96;84.60;97274.22;5069113;28;20024;-80
2023/01/15 10:23:38;;;;;;;5.03;3.17;;;;;;;4.12;84.61;97294.50;5047616;28;20485;-80
2023/01/15 10:26:17;;;;;;;2.55;1.80;;;;;;;4.03;84.85;97290.69;5043157;28;20400;-80
2023/01/15 10:29:23;;;;;;;3.00;1.33;;;;;;;4.14;84.28;97300.34;5049967;28;20173;-80
2023/01/15 10:31:56;;;;;;;5.10;1.60;;;;;;;4.01;84.03;97298.06;5067672;28;20055;-80
2023/01/15 10:34:39;;;;;;;1.40;1.30;;;;;;;4.03;84.47;97269.56;5054848;28;20025;-80
2023/01/15 10:37:16;;;;;;;2.65;0.85;;;;;;;4.09;83.94;97287.06;5068775;28;20056;-80
2023/01/15 10:39:41;;;;;;;1.17;0.68;;;;;;;4.06;83.45;97292.03;5060056;28;20447;-80
2023/01/15 10:42:46;;;;;;;1.90;1.38;;;;;;;4.06;83.93;97284.13;5063608;28;20032;-80
2023/01/15 10:45:25;;;;;;;1.65;1.52;;;;;;;4.16;84.45;97274.47;5033115;28;20071;-80
2023/01/15 10:48:03;;;;;;;2.58;2.25;;;;;;;4.10;84.08;97262.28;5041509;28;20115;-80
2023/01/15 10:50:28;;;;;;;2.22;1.05;;;;;;;4.17;84.09;97281.34;5079418;28;20111;-80
2023/01/15 10:53:12;;;;;;;1.85;1.38;;;;;;;4.19;84.47;97289.84;5035514;28;20074;-80
2023/01/15 10:55:44;;;;;;;1.75;1.02;;;;;;;4.16;84.44;97269.19;5057929;28;20392;-80
2023/01/15 10:58:12;;;;;;;3.40;1.13;;;;;;;4.11;83.82;97273.59;5046764;28;20021;-80
2023/01/15 11:00:38;;;;;;;0.93;0.73;;;;;;;4.15;83.64;97259.66;5054411;28;20086;-80
2023/01/15 11:03:13;;;;;;;2.67;0.80;;;;;;;4.15;83.31;97264.19;5063815;28;20013;-80
2023/01/15 11:05:39;;;;;;;1.65;1.02;;;;;;;4.06;84.18;97260.38;5066293;28;20512;-80
2023/01/15 11:08:12;;;;;;;1.20;0.73;;;;;;;4.08;83.95;97248.53;5047857;28;20128;-81
2023/01/15 11:10:39;;;;;;;4.30;1.88;;;;;;;4.18;83.26;97259.19;5049244;28;20039;-80
2023/01/15 11:21:31;;;;;;;1.48;0.90;;;;;;;4.00;82.59;97262.13;5066536;28;20120;-80
2023/01/15 11:23:59;;;;;;;1.27;1.25;;;;;;;4.14;84.40;97254.66;5034913;28;20463;-80
2023/01/15 11:26:30;;;;;;;0.88;0.80;;;;;;;4.10;82.71;97250.91;5050415;28;20110;-80
2023/01/15 11:28:58;;;;;;;2.00;1.45;;;;;;;3.97;82.50;97249.44;5053081;28;20047;-80
2023/01/15 11:31:38;;;;;;;3.60;1.15;;;;;;;4.13;82.25;97259.13;5064711;28;20181;-80
2023/01/15 11:34:15;;;;;;;3.20;1.38;;;;;;;4.02;82.01;97251.34;5068239;28;20031;-80
2023/01/15 11:36:40;;;;;;;1.95;1.58;;;;;;;4.18;82.05;97253.09;5032947;28;20518;-80
2023/01/15 11:39:23;;;;;;;1.35;1.30;;;;;;;4.01;81.72;97255.81;5070339;28;20115;-80
2023/01/15 11:53:01;;;;;;;2.47;1.08;;;;;;;4.17;81.00;97272.66;5070698;28;20059;-80
2023/01/15 11:55:27;;;;;;;1.05;0.80;;;;;;;4.29;81.61;97279.38;5066577;28;20037;-80
2023/01/15 11:57:55;;;;;;;1.55;0.85;;;;;;;4.25;81.35;97286.22;5074698;28;20025;-80
2023/01/15 12:00:22;;;;;;;1.20;0.50;;;;;;;4.32;81.83;97286.84;5063568;28;20029;-80
2023/01/15 12:02:50;;;;;;;1.00;0.47;;;;;;;4.36;81.51;97290.56;5062512;28;20067;-80
2023/01/15 12:05:29;;;;;;;0.60;0.60;;;;;;;4.45;81.98;97309.41;5061569;28;20036;-80
2023/01/15 12:08:00;;;;;;;3.53;0.63;;;;;;;4.57;80.94;97316.16;5066387;28;20080;-80
2023/01/15 12:13:31;;;;;;;1.65;0.52;;;;;;;4.58;81.55;97319.59;5053981;28;20043;-80
2023/01/15 12:16:12;;;;;;;1.20;0.73;;;;;;;4.54;82.18;97303.44;5081155;28;20024;-80
2023/01/15 12:18:52;;;;;;;1.17;1.10;;;;;;;4.53;82.04;97319.53;5055001;28;20526;-80
2023/01/15 12:21:58;;;;;;;8.68;3.83;;;;;;;4.45;80.65;97297.03;5065585;28;20027;-80
2023/01/15 12:24:55;;;;;;;4.78;3.42;;;;;;;4.49;80.92;97306.03;5057485;28;20476;-80
2023/01/15 12:27:36;;;;;;;4.10;2.67;;;;;;;4.46;81.18;97287.22;5023573;28;20044;-80
2023/01/15 12:30:17;;;;;;;5.15;2.53;;;;;;;4.62;80.50;97309.31;5070240;28;20107;-80
2023/01/15 12:32:51;;;;;;;5.30;3.65;;;;;;;4.53;81.26;97293.13;5066107;28;20039;-80
2023/01/15 12:35:40;;;;;;;4.97;3.22;;;;;;;4.60;81.40;97309.59;5048138;28;20043;-80
2023/01/15 12:38:37;;;;;;;4.28;3.70;;;;;;;4.69;80.91;97317.88;5047458;28;20028;-80